Airfield :
LOGIN :

Register | Disclaimer

   EN    FR    IT 

 










Legend :    VFR   Marginal VFR   IFR   Intensive IFR   Very Intensive IFR
Visi :
Ceiling :
>= 8 km
>= 3000ft
5 to 8 km
1000 to 3000 ft
1500m to 5 km
500 to 1000 ft
800 to 1500m
200 to 500 ft
< 800m
< 200 ft
Symbols :   Thunderstorms  Fog  Heavy snow  Heavy precipitations  Wind > 20 kt
SIGMETs :     Misc.  Thunderstorms  Icing  Turbulence  Mountain Waves  Volcanic Ashes






- Airport Elevation : 309 ft
- IATA code : FNI


LFTW - Nîmes Garons

CURRENT METAR :
  • 281830Z AUTO VRB02KT CAVOK 13/06 Q1014 NOSIG

EXPIRED METARs :
  • 281800Z AUTO VRB03KT CAVOK 14/07 Q1014 NOSIG
  • 281730Z AUTO 23006KT CAVOK 16/06 Q1013 NOSIG
  • 281700Z AUTO 23007KT CAVOK 17/05 Q1013 NOSIG
  • 281630Z AUTO 23007KT 200V270 CAVOK 18/06 Q1013 NOSIG
  • 281600Z AUTO 23008KT CAVOK 18/06 Q1013 NOSIG

TAF TAF LFTW
Valid from the 28 at 15:00 until the 29 at 15:00 UTC


281400Z 2815/2915 VRB03KT CAVOK
TEMPO 2815/2818 23010KT
BECMG 2820/2822 34010KT



MET'MAP, your aeronautical weather chart ! - Copyright ORBIFLY December 2007 - Disclaimer

ORBIFLY MET'MAP TEAM :

Programming & Development : Alexandra Zaïnal
Concept & original design : Baudouin d'Aumeries
Assistance for programming : Marc-Olivier Méhu
Technical & hardware support : Manuel Goepfert

Contact : metmap@orbifly.com




SOURCES & CREDITS :

   NOAA